Airfield :
LOGIN :

Register | Disclaimer

   EN    FR    IT 

 










Legend :    VFR   Marginal VFR   IFR   Intensive IFR   Very Intensive IFR
Visi :
Ceiling :
>= 8 km
>= 3000ft
5 to 8 km
1000 to 3000 ft
1500m to 5 km
500 to 1000 ft
800 to 1500m
200 to 500 ft
< 800m
< 200 ft
Symbols :   Thunderstorms  Fog  Heavy snow  Heavy precipitations  Wind > 20 kt
SIGMETs :     Misc.  Thunderstorms  Icing  Turbulence  Mountain Waves  Volcanic Ashes






- Airport Elevation : 297 ft


EGVP - Middle Wallop

CURRENT METAR :
  • 192050Z 20004KT CAVOK 20/15 Q1013 NOSIG RMK BLU BLU

EXPIRED METARs :
  • 192020Z 21005KT CAVOK 20/15 Q1013 NOSIG RMK BLU BLU
  • 191950Z 21006KT CAVOK 22/15 Q1013 NOSIG RMK BLU BLU
  • 191920Z AUTO 22006KT 9999 NCD 23/15 Q1013
  • 191850Z 23007KT CAVOK 25/16 Q1013 RMK BLU
  • 191820Z AUTO 19008KT 9999 NCD 26/16 Q1013
  • 191750Z 19009KT CAVOK 26/16 Q1013 NOSIG RMK BLU BLU
  • 191720Z AUTO 20010KT 9999 NCD 27/15 Q1013
  • 191650Z 21009KT CAVOK 28/16 Q1013 NOSIG RMK BLU BLU
  • 191620Z AUTO 20010KT 9999 NCD 28/16 Q1014

TAF TAF EGVP
Valid from the 19 at 21:00 until the 20 at 02:00 UTC


191955Z 1921/2002 20004KT 9999 FEW048
PROB30 2000/2002 6000 BR SCT004
ATIS : +44 1980 674 142



MET'MAP, your aeronautical weather chart ! - Copyright ORBIFLY December 2007 - Disclaimer

ORBIFLY MET'MAP TEAM :

Programming & Development : Alexandra Zaïnal
Original concept : Baudouin d'Aumeries
Technical & hardware support : Manuel Goepfert
Assistance : Marc-Olivier Méhu




SOURCES & CREDITS :

   NOAA